Norton Canes, United Kingdom
Current Conditions -  °F | °C
As of 4:50 AM on Monday 22 Dec 2014 (Local Time) from EGBB Reporting Station
Broken Clouds Broken Clouds  
Wind Chill: 54°   Ceiling: 1600
Heat Index: 54°   Visibility: 6mi
Dew Point: 48°   Wind: 14mph
Humidity: 82%   Direction: 240°WSW
Pressure: 29.94"   Gusts: 25mph
Location:  52.67°N, 1.96°W
Report Text: EGBB 220450Z 24012G22KT 200V290 9999 BKN016 12/09 Q1014
Loading
Personal Weather Stations






























Interactive Weather Map New forecast layout! Learn more

10-Day Weather Forecast

Advertisements
Track Severe Weather on mobile